Time;durP1;ratioP1;P1;durP2;ratioP2;P2;SDS_P1;SDS_P2;PMS_P1;PMS_P2;Temp;Humidity;BMP_temperature;BMP_pressure;BME280_temperature;BME280_humidity;BME280_pressure;Samples;Min_cycle;Max_cycle;Signal;HPM_P1;HPM_P2
2022/03/28 00:01:47;;;;;;;16.88;5.05;;;6.50;99.90;;;;;;5066157;28;20047;-72
2022/03/28 00:04:13;;;;;;;19.10;5.10;;;6.50;99.90;;;;;;5064296;28;20072;-72
2022/03/28 00:06:39;;;;;;;55.15;6.15;;;6.60;99.90;;;;;;5066134;28;20068;-72
2022/03/28 00:09:05;;;;;;;38.30;5.32;;;6.50;99.90;;;;;;5062996;28;20119;-72
2022/03/28 00:11:32;;;;;;;39.63;5.57;;;6.50;99.90;;;;;;5067810;28;20040;-72
2022/03/28 00:13:58;;;;;;;30.75;5.65;;;6.50;99.90;;;;;;5063520;28;20456;-72
2022/03/28 00:16:24;;;;;;;45.72;5.75;;;6.40;99.90;;;;;;5060237;28;20036;-72
2022/03/28 00:18:50;;;;;;;26.27;4.97;;;6.50;99.90;;;;;;5064403;28;20052;-72
2022/03/28 00:21:16;;;;;;;18.15;5.40;;;6.50;99.90;;;;;;5058551;28;20101;-72
2022/03/28 00:23:41;;;;;;;22.45;5.53;;;6.50;99.90;;;;;;5049904;28;20060;-72
2022/03/28 00:26:07;;;;;;;38.67;5.53;;;6.50;99.90;;;;;;5059267;28;21006;-72
2022/03/28 00:28:32;;;;;;;29.42;5.35;;;6.60;99.90;;;;;;5066776;28;20044;-72
2022/03/28 00:30:58;;;;;;;18.48;5.70;;;6.60;99.90;;;;;;5066449;28;20041;-72
2022/03/28 00:33:24;;;;;;;56.30;5.00;;;6.60;99.90;;;;;;5066375;28;20395;-72
2022/03/28 00:35:49;;;;;;;46.03;5.38;;;6.60;99.90;;;;;;5066347;28;20047;-72
2022/03/28 00:38:15;;;;;;;26.40;4.45;;;6.50;99.90;;;;;;5066530;28;20040;-72
2022/03/28 00:40:42;;;;;;;30.67;4.57;;;6.50;99.90;;;;;;5063212;28;20045;-72
2022/03/28 00:43:08;;;;;;;41.88;5.15;;;6.40;99.90;;;;;;5065116;28;20052;-72
2022/03/28 00:45:36;;;;;;;19.67;4.30;;;6.40;99.90;;;;;;5059221;28;20408;-72
2022/03/28 00:48:02;;;;;;;95.40;6.15;;;6.40;99.90;;;;;;5064836;28;20046;-72
2022/03/28 00:50:29;;;;;;;53.30;6.13;;;6.40;99.90;;;;;;5069452;28;20071;-72
2022/03/28 00:52:55;;;;;;;33.80;5.20;;;6.40;99.90;;;;;;5070374;28;20068;-72
2022/03/28 00:55:21;;;;;;;54.83;5.20;;;6.40;99.90;;;;;;5061242;28;20566;-72
2022/03/28 00:57:46;;;;;;;22.63;4.72;;;6.40;99.90;;;;;;5065326;28;20046;-72
2022/03/28 01:00:13;;;;;;;16.95;4.00;;;6.40;99.90;;;;;;5067355;28;20087;-72
2022/03/28 01:02:39;;;;;;;73.05;5.85;;;6.30;99.90;;;;;;5067790;28;20067;-72
2022/03/28 01:05:06;;;;;;;13.73;3.70;;;6.30;99.90;;;;;;5069912;28;20454;-72
2022/03/28 01:07:32;;;;;;;45.35;4.65;;;6.30;99.90;;;;;;5070078;28;20430;-73
2022/03/28 01:09:59;;;;;;;34.38;5.00;;;6.30;99.90;;;;;;5066488;28;20101;-72
2022/03/28 01:12:30;;;;;;;27.08;4.30;;;6.30;99.90;;;;;;5070535;28;20037;-72
2022/03/28 01:14:57;;;;;;;21.95;4.25;;;6.30;99.90;;;;;;5069230;28;20159;-72
2022/03/28 01:20:09;;;;;;;39.15;4.45;;;6.30;99.90;;;;;;5069544;28;20597;-72
2022/03/28 01:22:35;;;;;;;41.83;5.28;;;6.40;99.90;;;;;;5063948;28;20037;-72
2022/03/28 01:25:03;;;;;;;14.88;4.30;;;6.40;99.90;;;;;;5065785;28;20044;-72
2022/03/28 01:27:29;;;;;;;34.40;4.05;;;6.40;99.90;;;;;;5070761;28;20040;-72
2022/03/28 01:29:55;;;;;;;58.33;5.18;;;6.40;99.90;;;;;;5067405;28;20595;-72
2022/03/28 01:32:21;;;;;;;35.75;4.80;;;6.40;99.90;;;;;;5069099;28;20037;-72
2022/03/28 01:34:46;;;;;;;41.03;4.93;;;6.40;99.90;;;;;;5059366;28;20051;-72
2022/03/28 01:37:12;;;;;;;24.48;4.75;;;6.40;99.90;;;;;;5065474;28;20460;-72
2022/03/28 01:39:38;;;;;;;36.38;4.90;;;6.40;99.90;;;;;;5067410;28;20049;-72
2022/03/28 01:42:04;;;;;;;37.83;5.53;;;6.30;99.90;;;;;;5068964;28;20048;-72
2022/03/28 01:44:29;;;;;;;42.58;4.90;;;6.30;99.90;;;;;;5067128;28;20491;-72
2022/03/28 01:46:55;;;;;;;38.72;5.38;;;6.30;99.90;;;;;;5069067;28;20040;-72
2022/03/28 01:49:26;;;;;;;111.18;6.93;;;6.30;99.90;;;;;;5067128;28;20066;-72
2022/03/28 01:51:52;;;;;;;59.53;5.70;;;6.30;99.90;;;;;;5053768;28;20582;-72
2022/03/28 01:54:18;;;;;;;77.65;6.57;;;6.20;99.90;;;;;;5069975;28;20056;-72
2022/03/28 01:56:44;;;;;;;59.70;5.45;;;6.20;99.90;;;;;;5062669;28;20368;-72
2022/03/28 01:59:10;;;;;;;46.50;5.45;;;6.20;99.90;;;;;;5063768;28;20108;-72
2022/03/28 02:01:36;;;;;;;37.92;4.95;;;6.20;99.90;;;;;;5065156;28;20487;-72
2022/03/28 02:04:03;;;;;;;29.70;4.70;;;6.20;99.90;;;;;;5057301;28;20044;-72
2022/03/28 02:06:29;;;;;;;16.88;4.70;;;6.20;99.90;;;;;;5065978;28;20483;-72
2022/03/28 02:08:55;;;;;;;13.95;5.20;;;6.20;99.90;;;;;;5068416;28;20124;-71
2022/03/28 02:11:20;;;;;;;29.13;5.95;;;6.20;99.90;;;;;;5063177;28;20084;-72
2022/03/28 02:13:46;;;;;;;27.92;6.85;;;6.20;99.90;;;;;;5065298;28;20075;-72
2022/03/28 02:16:12;;;;;;;32.08;6.72;;;6.20;99.90;;;;;;5064731;28;20461;-72
2022/03/28 02:18:38;;;;;;;23.20;6.10;;;6.30;99.90;;;;;;5069224;28;20032;-72
2022/03/28 02:21:04;;;;;;;26.20;6.25;;;6.30;99.90;;;;;;5067140;28;20041;-72
2022/03/28 02:23:30;;;;;;;30.58;6.90;;;6.30;99.90;;;;;;5068989;28;20036;-72
2022/03/28 02:25:56;;;;;;;120.40;9.95;;;6.30;99.90;;;;;;5058796;28;20064;-72
2022/03/28 02:28:22;;;;;;;41.47;8.27;;;6.30;99.90;;;;;;5063233;28;20686;-72
2022/03/28 02:30:47;;;;;;;24.60;8.52;;;6.30;99.90;;;;;;5067821;28;20084;-72
2022/03/28 02:33:13;;;;;;;90.03;9.45;;;6.20;99.90;;;;;;5068007;28;20033;-72
2022/03/28 02:35:40;;;;;;;68.20;9.38;;;6.30;99.90;;;;;;5058066;28;20041;-72
2022/03/28 02:38:06;;;;;;;69.43;11.27;;;6.30;99.90;;;;;;5069531;28;20051;-72
2022/03/28 02:40:32;;;;;;;66.35;11.13;;;6.30;99.90;;;;;;5066358;28;20057;-72
2022/03/28 02:42:59;;;;;;;53.60;10.25;;;6.30;99.90;;;;;;5063765;28;20072;-72
2022/03/28 02:45:27;;;;;;;91.90;11.45;;;6.30;99.90;;;;;;5064233;28;20040;-72
2022/03/28 02:47:52;;;;;;;;;;;6.30;99.90;;;;;;5064887;28;20052;-72
2022/03/28 02:50:18;;;;;;;55.50;11.45;;;6.30;99.90;;;;;;5067879;28;20308;-72
2022/03/28 02:52:44;;;;;;;113.22;12.45;;;6.30;99.90;;;;;;5067490;28;20056;-72
2022/03/28 02:55:10;;;;;;;53.80;12.00;;;6.30;99.90;;;;;;5064822;28;20036;-72
2022/03/28 02:57:36;;;;;;;47.97;11.90;;;6.30;99.90;;;;;;5066630;28;20041;-72
2022/03/28 03:00:07;;;;;;;80.15;14.02;;;6.30;99.90;;;;;;5067784;28;20238;-72
2022/03/28 03:02:34;;;;;;;75.45;12.85;;;6.30;99.90;;;;;;5058787;28;20049;-72
2022/03/28 03:05:00;;;;;;;96.72;14.50;;;6.40;99.90;;;;;;5066955;28;20052;-72
2022/03/28 03:07:26;;;;;;;56.50;12.68;;;6.30;99.90;;;;;;5066148;28;20687;-72
2022/03/28 03:09:52;;;;;;;38.90;13.23;;;6.40;99.90;;;;;;5060870;28;20045;-72
2022/03/28 03:12:17;;;;;;;83.53;14.98;;;6.30;99.90;;;;;;5059877;28;20075;-72
2022/03/28 03:14:43;;;;;;;154.95;16.25;;;6.40;99.90;;;;;;5091746;28;20065;-73
2022/03/28 03:17:08;;;;;;;77.90;14.45;;;6.40;99.90;;;;;;5058185;28;20056;-72
2022/03/28 03:19:34;;;;;;;77.50;15.82;;;6.30;99.90;;;;;;5068942;28;20067;-72
2022/03/28 03:22:00;;;;;;;96.25;15.93;;;6.30;99.90;;;;;;5062785;28;20075;-72
2022/03/28 03:24:26;;;;;;;165.77;17.42;;;6.30;99.90;;;;;;5067179;28;20028;-72
2022/03/28 03:26:51;;;;;;;70.85;16.63;;;6.30;99.90;;;;;;5064396;28;20049;-72
2022/03/28 03:29:17;;;;;;;58.47;16.15;;;6.30;99.90;;;;;;5067567;28;20068;-72
2022/03/28 03:31:43;;;;;;;68.78;16.42;;;6.30;99.90;;;;;;5066213;28;20119;-72
2022/03/28 03:34:08;;;;;;;114.90;16.77;;;6.30;99.90;;;;;;5067123;28;20040;-72
2022/03/28 03:36:34;;;;;;;159.45;17.23;;;6.30;99.90;;;;;;5067003;28;20078;-71
2022/03/28 03:39:02;;;;;;;142.75;17.15;;;6.20;99.90;;;;;;5064591;28;20043;-72
2022/03/28 03:41:28;;;;;;;124.75;17.23;;;6.20;99.90;;;;;;5063597;28;20140;-71
2022/03/28 03:43:54;;;;;;;59.40;16.17;;;6.20;99.90;;;;;;5065553;28;20136;-72
2022/03/28 03:46:19;;;;;;;47.30;14.52;;;6.20;99.90;;;;;;5065693;28;20446;-72
2022/03/28 03:48:45;;;;;;;40.25;15.07;;;6.20;99.90;;;;;;5066282;28;20037;-72
2022/03/28 03:51:10;;;;;;;28.95;15.30;;;6.20;99.90;;;;;;5067654;28;20048;-72
2022/03/28 03:53:36;;;;;;;37.20;14.30;;;6.20;99.90;;;;;;5056127;28;20045;-72
2022/03/28 03:56:05;;;;;;;60.30;15.40;;;6.30;99.90;;;;;;5062033;28;20048;-72
2022/03/28 03:58:33;;;;;;;39.75;15.45;;;6.20;99.90;;;;;;5063182;28;20115;-72
2022/03/28 04:00:59;;;;;;;48.83;15.45;;;6.20;99.90;;;;;;5066185;28;21944;-72
2022/03/28 04:03:25;;;;;;;42.80;15.52;;;6.20;99.90;;;;;;5067128;28;20045;-72
2022/03/28 04:05:50;;;;;;;61.33;16.85;;;6.20;99.90;;;;;;5064894;28;20075;-72
2022/03/28 04:08:16;;;;;;;40.58;14.57;;;6.20;99.90;;;;;;5066448;28;20125;-72
2022/03/28 04:10:42;;;;;;;84.60;16.83;;;6.20;99.90;;;;;;5064112;28;20424;-72
2022/03/28 04:13:10;;;;;;;55.83;15.83;;;6.20;99.90;;;;;;5063120;28;20041;-72
2022/03/28 04:15:39;;;;;;;33.28;15.70;;;6.20;99.90;;;;;;5066779;28;20048;-72
2022/03/28 04:18:04;;;;;;;35.50;16.20;;;6.20;99.90;;;;;;5067144;28;20530;-72
2022/03/28 04:20:32;;;;;;;32.60;15.40;;;6.20;99.90;;;;;;5059748;28;20450;-72
2022/03/28 04:22:58;;;;;;;28.88;16.05;;;6.20;99.90;;;;;;5068470;28;20120;-72
2022/03/28 04:25:24;;;;;;;52.42;16.33;;;6.20;99.90;;;;;;5066996;28;20510;-72
2022/03/28 04:27:50;;;;;;;49.17;17.50;;;6.20;99.90;;;;;;5068007;28;20037;-72
2022/03/28 04:30:16;;;;;;;33.58;15.30;;;6.20;99.90;;;;;;5064005;28;20045;-72
2022/03/28 04:32:42;;;;;;;40.30;16.70;;;6.20;99.90;;;;;;5069357;28;20056;-72
2022/03/28 04:35:10;;;;;;;34.75;16.42;;;6.20;99.90;;;;;;5068681;28;20234;-72
2022/03/28 04:37:40;;;;;;;38.95;15.48;;;6.10;99.90;;;;;;5071385;28;20037;-72
2022/03/28 04:40:09;;;;;;;47.67;17.08;;;6.20;99.90;;;;;;5096453;28;20064;-72
2022/03/28 04:42:34;;;;;;;45.03;15.77;;;6.20;99.90;;;;;;5069050;28;20047;-72
2022/03/28 04:45:00;;;;;;;57.35;16.23;;;6.20;99.90;;;;;;5071509;28;20131;-72
2022/03/28 04:47:27;;;;;;;43.00;13.93;;;6.20;99.90;;;;;;5070932;28;20070;-72
2022/03/28 04:49:52;;;;;;;34.13;15.98;;;6.20;99.90;;;;;;5065444;28;20040;-72
2022/03/28 04:52:18;;;;;;;64.60;16.10;;;6.10;99.90;;;;;;5062055;28;20043;-72
2022/03/28 04:54:44;;;;;;;30.45;16.52;;;6.10;99.90;;;;;;5065986;28;20052;-72
2022/03/28 04:57:09;;;;;;;38.92;15.65;;;6.10;99.90;;;;;;5067253;28;20127;-72
2022/03/28 04:59:35;;;;;;;39.33;15.60;;;6.10;99.90;;;;;;5068403;28;20041;-72
2022/03/28 05:02:00;;;;;;;63.70;16.35;;;6.00;99.90;;;;;;5067580;28;20488;-72
2022/03/28 05:04:26;;;;;;;50.90;15.98;;;6.10;99.90;;;;;;5071756;28;20415;-72
2022/03/28 05:06:52;;;;;;;61.45;17.45;;;6.10;99.90;;;;;;5068658;28;20139;-72
2022/03/28 05:09:18;;;;;;;50.50;17.08;;;6.10;99.90;;;;;;5064034;28;20047;-72
2022/03/28 05:11:44;;;;;;;62.25;16.77;;;6.00;99.90;;;;;;5068133;28;20395;-72
2022/03/28 05:14:10;;;;;;;34.80;15.52;;;6.10;99.90;;;;;;5067383;28;20505;-72
2022/03/28 05:16:36;;;;;;;32.72;15.88;;;6.10;99.90;;;;;;5066753;28;20040;-72
2022/03/28 05:19:02;;;;;;;29.00;14.35;;;6.00;99.90;;;;;;5069398;28;20033;-72
2022/03/28 05:21:28;;;;;;;56.05;15.93;;;6.00;99.90;;;;;;5069593;28;20053;-72
2022/03/28 05:23:54;;;;;;;43.45;16.05;;;6.00;99.90;;;;;;5067080;28;20044;-72
2022/03/28 05:26:19;;;;;;;29.92;14.43;;;5.90;99.90;;;;;;5065394;28;20094;-72
2022/03/28 05:28:45;;;;;;;66.38;17.00;;;5.90;99.90;;;;;;5068962;28;20037;-72
2022/03/28 05:31:11;;;;;;;61.30;18.55;;;5.90;99.90;;;;;;5067636;28;20047;-72
2022/03/28 05:33:36;;;;;;;53.28;18.42;;;5.80;99.90;;;;;;5068859;28;20044;-72
2022/03/28 05:36:02;;;;;;;32.90;16.45;;;5.90;99.90;;;;;;5068243;28;20852;-72
2022/03/28 05:38:28;;;;;;;97.15;19.60;;;5.90;99.90;;;;;;5069132;28;20051;-72
2022/03/28 05:40:56;;;;;;;59.50;17.92;;;5.90;99.90;;;;;;5065272;28;20096;-72
2022/03/28 05:43:23;;;;;;;44.03;17.33;;;5.90;99.90;;;;;;5066791;28;20041;-72
2022/03/28 05:45:50;;;;;;;56.10;19.55;;;5.90;99.90;;;;;;5067362;28;20098;-72
2022/03/28 05:48:15;;;;;;;49.25;20.35;;;5.90;99.90;;;;;;5066761;28;20045;-72
2022/03/28 05:50:41;;;;;;;78.22;21.42;;;5.90;99.90;;;;;;5066653;28;20040;-72
2022/03/28 05:53:07;;;;;;;70.70;21.05;;;5.90;99.90;;;;;;5066777;28;20051;-72
2022/03/28 05:55:32;;;;;;;47.90;19.98;;;6.00;99.90;;;;;;5071116;28;20045;-72
2022/03/28 05:58:01;;;;;;;31.65;20.77;;;6.00;99.90;;;;;;5067361;28;20040;-73
2022/03/28 06:00:26;;;;;;;71.38;20.45;;;6.00;99.90;;;;;;5061011;28;20048;-72
2022/03/28 06:02:54;;;;;;;109.20;22.25;;;6.10;99.90;;;;;;5064924;28;20175;-72
2022/03/28 06:05:20;;;;;;;67.03;20.67;;;6.00;99.90;;;;;;5055835;28;20066;-72
2022/03/28 06:07:46;;;;;;;40.72;17.52;;;6.00;99.90;;;;;;5067397;28;20045;-72
2022/03/28 06:10:11;;;;;;;40.08;21.30;;;6.00;99.90;;;;;;5068035;28;20051;-72
2022/03/28 06:12:37;;;;;;;29.33;20.98;;;6.00;99.90;;;;;;5067257;28;20141;-71
2022/03/28 06:15:03;;;;;;;111.28;24.45;;;6.00;99.90;;;;;;5064371;28;20483;-72
2022/03/28 06:17:29;;;;;;;44.20;20.85;;;6.00;99.90;;;;;;5067766;28;20040;-72
2022/03/28 06:19:55;;;;;;;45.05;20.88;;;6.10;99.90;;;;;;5064968;28;20047;-71
2022/03/28 06:22:20;;;;;;;41.80;19.73;;;6.10;99.90;;;;;;5066989;28;20048;-73
2022/03/28 06:24:47;;;;;;;55.03;19.02;;;6.10;99.90;;;;;;5061267;28;20040;-72
2022/03/28 06:27:12;;;;;;;82.65;21.33;;;6.10;99.90;;;;;;5064521;28;20045;-72
2022/03/28 06:29:38;;;;;;;40.88;18.65;;;6.00;99.90;;;;;;5068854;28;20365;-72
2022/03/28 06:32:04;;;;;;;31.08;18.63;;;6.10;99.90;;;;;;5063474;28;20041;-72
2022/03/28 06:34:30;;;;;;;47.70;20.40;;;6.10;99.90;;;;;;5065112;28;20044;-72
2022/03/28 06:36:57;;;;;;;65.88;19.88;;;6.10;99.90;;;;;;5063128;28;20068;-72
2022/03/28 06:39:22;;;;;;;32.08;19.60;;;6.10;99.90;;;;;;5061920;28;20049;-72
2022/03/28 06:41:48;;;;;;;87.78;21.80;;;6.10;99.90;;;;;;5057986;28;21527;-72
2022/03/28 06:44:14;;;;;;;34.60;19.98;;;6.10;99.90;;;;;;5067871;28;20037;-72
2022/03/28 06:46:40;;;;;;;32.30;19.60;;;6.20;99.90;;;;;;5064032;28;20037;-72
2022/03/28 06:49:06;;;;;;;36.50;19.92;;;6.10;99.90;;;;;;5066326;28;20037;-72
2022/03/28 06:51:33;;;;;;;27.55;18.92;;;6.10;99.90;;;;;;5067361;28;20052;-72
2022/03/28 06:53:58;;;;;;;47.17;20.83;;;6.20;99.90;;;;;;5065742;28;20802;-72
2022/03/28 06:56:24;;;;;;;37.30;19.88;;;6.20;99.90;;;;;;5063513;28;20044;-72
2022/03/28 06:58:50;;;;;;;41.55;20.67;;;6.10;99.90;;;;;;5063410;28;20053;-72
2022/03/28 07:01:16;;;;;;;39.35;20.88;;;6.10;99.90;;;;;;5065295;28;20047;-72
2022/03/28 07:03:41;;;;;;;31.15;20.10;;;6.20;99.90;;;;;;5062946;28;20028;-72
2022/03/28 07:06:10;;;;;;;33.65;18.15;;;6.10;99.90;;;;;;5064829;28;20052;-72
2022/03/28 07:08:36;;;;;;;21.20;16.25;;;6.10;99.90;;;;;;5065082;28;20036;-72
2022/03/28 07:11:02;;;;;;;28.20;16.95;;;6.10;99.90;;;;;;5056861;28;20083;-72
2022/03/28 07:13:28;;;;;;;22.08;15.75;;;6.10;99.90;;;;;;5094866;28;20055;-72
2022/03/28 07:15:54;;;;;;;26.98;17.08;;;6.10;99.90;;;;;;5048041;28;20091;-72
2022/03/28 07:18:19;;;;;;;32.72;17.40;;;6.10;99.90;;;;;;5047798;28;20040;-71
2022/03/28 07:20:46;;;;;;;23.33;15.88;;;6.00;99.90;;;;;;5065297;28;20139;-72
2022/03/28 07:23:13;;;;;;;21.27;14.40;;;6.10;99.90;;;;;;5052826;28;20041;-73
2022/03/28 07:25:39;;;;;;;25.33;15.88;;;6.10;99.90;;;;;;5062829;28;20044;-77
2022/03/28 07:28:12;;;;;;;33.25;15.25;;;6.10;99.90;;;;;;5064313;28;20097;-79
2022/03/28 07:30:39;;;;;;;22.80;13.88;;;6.10;99.90;;;;;;5066790;28;20063;-79
2022/03/28 07:33:06;;;;;;;21.45;15.13;;;6.10;99.90;;;;;;5064130;28;20491;-78
2022/03/28 07:35:35;;;;;;;21.88;13.57;;;6.10;99.90;;;;;;5085156;28;20048;-77
2022/03/28 07:38:03;;;;;;;22.05;15.40;;;6.20;99.90;;;;;;5067975;28;20037;-76
2022/03/28 07:40:28;;;;;;;22.02;15.45;;;6.20;99.90;;;;;;5068153;28;20056;-73
2022/03/28 07:42:54;;;;;;;20.75;15.15;;;6.20;99.90;;;;;;5064898;28;20032;-74
2022/03/28 07:45:20;;;;;;;22.45;13.30;;;6.20;99.90;;;;;;5069101;28;20123;-74
2022/03/28 07:47:46;;;;;;;16.00;11.27;;;6.20;99.90;;;;;;5067453;28;20048;-73
2022/03/28 07:50:12;;;;;;;15.73;11.73;;;6.20;99.90;;;;;;5068024;28;20044;-73
2022/03/28 07:52:39;;;;;;;22.60;13.45;;;6.20;99.90;;;;;;5068414;28;20574;-72
2022/03/28 07:55:06;;;;;;;19.60;13.90;;;6.20;99.90;;;;;;5067645;28;20062;-77
2022/03/28 07:57:33;;;;;;;19.75;14.35;;;6.20;99.90;;;;;;5070078;28;20466;-76
2022/03/28 07:59:59;;;;;;;24.40;14.10;;;6.20;99.90;;;;;;5071808;28;20040;-75
2022/03/28 08:02:24;;;;;;;21.08;12.20;;;6.20;99.90;;;;;;5067890;28;20435;-76
2022/03/28 08:04:50;;;;;;;23.45;14.18;;;6.30;99.90;;;;;;5065920;28;20045;-76
2022/03/28 08:07:16;;;;;;;26.00;13.90;;;6.30;99.90;;;;;;5073301;28;20101;-75
2022/03/28 08:09:42;;;;;;;19.50;13.85;;;6.30;99.90;;;;;;5071093;28;20040;-75
2022/03/28 08:12:10;;;;;;;23.85;14.02;;;6.30;99.90;;;;;;5070672;28;20565;-74
2022/03/28 08:14:36;;;;;;;19.65;14.25;;;6.30;99.90;;;;;;5069395;28;20032;-75
2022/03/28 08:17:03;;;;;;;25.27;14.80;;;6.30;99.90;;;;;;5066556;28;20062;-73
2022/03/28 08:19:29;;;;;;;20.73;14.32;;;6.40;99.90;;;;;;5052420;28;20333;-72
2022/03/28 08:21:55;;;;;;;20.88;14.52;;;6.40;99.90;;;;;;5069190;28;20403;-72
2022/03/28 08:24:21;;;;;;;24.88;16.58;;;6.40;99.90;;;;;;5073091;28;20040;-72
2022/03/28 08:26:51;;;;;;;25.30;16.98;;;6.40;99.90;;;;;;5096668;28;20140;-72
2022/03/28 08:29:16;;;;;;;37.83;23.92;;;6.50;99.90;;;;;;5060462;28;20036;-73
2022/03/28 08:31:42;;;;;;;21.50;14.60;;;6.50;99.90;;;;;;5070356;28;20040;-76
2022/03/28 08:34:09;;;;;;;19.30;13.65;;;6.50;99.90;;;;;;5070497;28;20055;-74
2022/03/28 08:36:35;;;;;;;22.70;15.63;;;6.60;99.90;;;;;;5070353;28;20040;-73
2022/03/28 08:39:03;;;;;;;20.27;12.77;;;6.60;99.90;;;;;;5071062;28;20510;-74
2022/03/28 08:41:31;;;;;;;;;;;6.60;99.90;;;;;;5071560;28;20136;-71
2022/03/28 08:43:56;;;;;;;16.88;11.57;;;6.70;99.90;;;;;;5070737;28;19928;-73
2022/03/28 08:46:22;;;;;;;14.90;9.85;;;6.70;99.90;;;;;;5069353;28;20391;-74
2022/03/28 08:48:49;;;;;;;16.33;11.13;;;6.70;99.90;;;;;;5068180;28;20082;-75
2022/03/28 08:51:17;;;;;;;16.02;11.05;;;6.70;99.90;;;;;;5069624;28;20036;-76
2022/03/28 08:53:44;;;;;;;16.30;11.55;;;6.70;99.90;;;;;;5070074;28;20107;-76
2022/03/28 08:56:10;;;;;;;14.45;10.85;;;6.70;99.90;;;;;;5063849;28;20040;-77
2022/03/28 08:58:36;;;;;;;13.95;10.00;;;6.80;99.90;;;;;;5070471;28;20052;-77
2022/03/28 09:01:04;;;;;;;12.40;8.63;;;6.80;99.90;;;;;;5069738;28;20040;-74
2022/03/28 09:03:47;;;;;;;12.52;8.93;;;6.80;99.90;;;;;;5072079;28;20048;-75
2022/03/28 09:06:32;;;;;;;223.30;187.90;;;6.80;99.90;;;;;;5071339;28;20037;-75
2022/03/28 09:09:12;;;;;;;19.15;14.00;;;6.90;99.90;;;;;;5066723;28;20052;-75
2022/03/28 09:11:42;;;;;;;12.43;9.25;;;7.00;99.90;;;;;;5071549;28;20068;-75
2022/03/28 09:14:11;;;;;;;12.45;9.10;;;7.10;99.90;;;;;;5068035;28;20048;-75
2022/03/28 09:16:37;;;;;;;10.93;7.55;;;7.10;99.90;;;;;;5068675;28;20643;-76
2022/03/28 09:19:10;;;;;;;9.88;7.00;;;7.20;99.90;;;;;;5062867;28;20079;-75
2022/03/28 09:21:37;;;;;;;9.93;7.43;;;7.20;99.90;;;;;;5061971;28;20049;-79
2022/03/28 09:24:09;;;;;;;10.10;7.82;;;7.30;99.90;;;;;;5087745;28;20048;-79
2022/03/28 09:26:35;;;;;;;9.43;6.90;;;7.30;99.90;;;;;;5071583;28;20475;-75
2022/03/28 09:29:02;;;;;;;9.38;6.95;;;7.40;99.90;;;;;;5068203;28;20041;-76
2022/03/28 09:31:37;;;;;;;7.43;5.88;;;7.50;99.90;;;;;;5069575;28;20041;-73
2022/03/28 09:34:20;;;;;;;7.43;5.72;;;7.70;99.90;;;;;;5071332;28;20526;-73
2022/03/28 09:36:49;;;;;;;8.43;6.43;;;7.70;99.90;;;;;;5067637;28;20041;-75
2022/03/28 09:39:19;;;;;;;7.15;5.88;;;7.70;99.90;;;;;;5056581;28;20041;-74
2022/03/28 09:42:00;;;;;;;7.93;5.90;;;7.70;99.90;;;;;;5083050;28;20507;-74
2022/03/28 09:44:48;;;;;;;7.60;5.90;;;7.80;99.90;;;;;;5067005;28;20047;-72
2022/03/28 09:47:17;;;;;;;8.45;5.82;;;7.70;99.90;;;;;;5060675;28;20419;-73
2022/03/28 09:49:44;;;;;;;7.07;5.68;;;7.80;99.90;;;;;;5069681;28;20045;-73
2022/03/28 09:52:17;;;;;;;7.55;6.07;;;7.80;99.90;;;;;;5061178;28;20513;-73
2022/03/28 09:54:57;;;;;;;7.30;5.40;;;7.70;99.90;;;;;;5065807;28;20078;-73
2022/03/28 09:57:24;;;;;;;8.50;6.28;;;7.80;99.90;;;;;;5053112;28;20045;-73
2022/03/28 09:59:51;;;;;;;7.53;6.27;;;7.80;99.90;;;;;;5067202;28;20480;-74
2022/03/28 10:02:22;;;;;;;8.45;6.65;;;7.80;99.90;;;;;;5069771;28;20044;-73
2022/03/28 10:04:51;;;;;;;8.27;6.93;;;7.80;99.90;;;;;;5069209;28;20387;-73
2022/03/28 10:07:18;;;;;;;8.07;6.82;;;7.80;99.90;;;;;;5055711;28;20059;-73
2022/03/28 10:09:44;;;;;;;9.45;7.30;;;7.80;99.90;;;;;;5066463;28;20032;-75
2022/03/28 10:12:09;;;;;;;8.93;7.22;;;7.90;99.90;;;;;;5067339;28;20056;-73
2022/03/28 10:14:36;;;;;;;10.48;7.72;;;7.90;99.90;;;;;;5066783;28;20037;-74
2022/03/28 10:17:03;;;;;;;8.90;7.78;;;8.00;99.90;;;;;;5067820;28;20411;-75
2022/03/28 10:19:37;;;;;;;8.65;7.22;;;8.10;99.90;;;;;;5067433;28;20087;-77
2022/03/28 10:22:08;;;;;;;8.63;7.05;;;8.10;99.90;;;;;;5063122;28;20961;-81
2022/03/28 10:24:34;;;;;;;9.55;7.88;;;8.10;99.90;;;;;;5069768;28;20044;-82
2022/03/28 10:27:02;;;;;;;9.27;7.22;;;8.20;99.90;;;;;;5067070;28;20049;-76
2022/03/28 10:29:39;;;;;;;11.10;7.88;;;8.20;99.90;;;;;;5068617;28;20059;-80
2022/03/28 10:32:17;;;;;;;10.18;8.10;;;8.10;99.90;;;;;;5067821;28;20051;-76
2022/03/28 10:34:44;;;;;;;;;;;8.10;99.90;;;;;;5067906;28;20047;-78
2022/03/28 10:37:36;;;;;;;11.60;9.00;;;8.10;99.90;;;;;;5069022;28;20367;-78
2022/03/28 10:40:24;;;;;;;11.70;8.75;;;8.10;99.90;;;;;;5088542;28;20106;-77
2022/03/28 10:42:58;;;;;;;10.88;8.07;;;8.20;99.90;;;;;;5068616;28;20128;-73
2022/03/28 10:45:48;;;;;;;9.98;8.00;;;8.20;99.90;;;;;;5067855;28;20097;-76
2022/03/28 10:48:14;;;;;;;10.45;8.43;;;8.30;99.90;;;;;;5092907;28;20040;-73
2022/03/28 10:50:45;;;;;;;10.45;7.95;;;8.30;99.90;;;;;;5061894;28;20044;-76
2022/03/28 10:53:25;;;;;;;10.90;8.57;;;8.40;99.90;;;;;;5062861;28;20102;-76
2022/03/28 10:55:57;;;;;;;10.23;7.97;;;8.50;99.90;;;;;;5063656;28;20052;-76
2022/03/28 10:58:52;;;;;;;9.73;7.90;;;8.50;99.90;;;;;;5061574;28;20033;-74
2022/03/28 11:01:20;;;;;;;11.65;8.88;;;8.60;99.90;;;;;;5054173;28;20061;-71
2022/03/28 11:03:47;;;;;;;10.73;9.40;;;8.70;99.90;;;;;;5067123;28;20063;-76
2022/03/28 11:06:15;;;;;;;11.20;8.95;;;8.80;99.90;;;;;;5067233;28;20052;-73
2022/03/28 11:08:56;;;;;;;13.18;9.23;;;8.90;99.90;;;;;;5053312;28;20041;-74
2022/03/28 11:11:27;;;;;;;12.88;9.07;;;9.00;99.90;;;;;;5062986;28;20049;-74
2022/03/28 11:14:00;;;;;;;10.95;8.65;;;9.10;99.90;;;;;;5065630;28;20141;-75
2022/03/28 11:16:54;;;;;;;10.85;8.70;;;9.10;99.90;;;;;;5058823;28;20068;-75
2022/03/28 11:19:27;;;;;;;11.07;8.98;;;9.20;99.90;;;;;;5066639;28;20040;-76
2022/03/28 11:22:02;;;;;;;12.50;9.60;;;9.20;99.90;;;;;;5088417;28;20051;-74
2022/03/28 11:24:43;;;;;;;12.18;9.00;;;9.20;99.90;;;;;;5063142;28;20036;-74
2022/03/28 11:27:09;;;;;;;11.25;9.02;;;9.20;99.90;;;;;;5056780;28;20458;-76
2022/03/28 11:29:35;;;;;;;11.45;9.35;;;9.30;99.90;;;;;;5064788;28;20115;-75
2022/03/28 11:32:09;;;;;;;12.85;9.50;;;9.30;99.90;;;;;;4998091;28;20153;-75
2022/03/28 11:34:35;;;;;;;12.55;9.18;;;9.40;99.90;;;;;;5007639;28;20404;-75
2022/03/28 11:37:02;;;;;;;11.40;9.07;;;9.40;99.90;;;;;;5005865;28;20579;-76
2022/03/28 11:39:29;;;;;;;11.95;9.43;;;9.50;99.90;;;;;;5002096;28;20050;-75
2022/03/28 11:41:56;;;;;;;13.20;9.15;;;9.60;99.90;;;;;;4999978;28;20140;-76
2022/03/28 11:44:22;;;;;;;14.05;9.57;;;9.60;99.90;;;;;;5029331;28;20050;-75
2022/03/28 11:46:55;;;;;;;12.15;9.10;;;9.80;99.90;;;;;;5013808;28;20060;-76
2022/03/28 11:49:20;;;;;;;11.38;9.00;;;9.90;99.90;;;;;;5041692;28;20041;-74
2022/03/28 11:51:48;;;;;;;11.82;8.95;;;9.90;99.90;;;;;;5008538;28;20042;-73
2022/03/28 11:54:18;;;;;;;11.35;8.48;;;10.00;99.90;;;;;;5005488;28;20392;-73
2022/03/28 11:59:31;;;;;;;12.63;9.80;;;10.10;99.90;;;;;;5007572;28;20136;-73
2022/03/28 12:02:02;;;;;;;14.00;9.27;;;10.20;99.90;;;;;;5007485;28;20509;-73
2022/03/28 12:04:28;;;;;;;12.52;9.00;;;10.40;99.90;;;;;;5006778;28;20295;-73
2022/03/28 12:06:54;;;;;;;12.98;9.88;;;10.40;99.90;;;;;;5008161;28;20423;-73
2022/03/28 12:09:20;;;;;;;12.52;10.02;;;10.60;99.90;;;;;;5008937;28;20088;-73
2022/03/28 12:11:55;;;;;;;13.67;9.70;;;10.70;99.90;;;;;;5006601;28;20049;-73
2022/03/28 12:14:22;;;;;;;12.88;9.52;;;10.70;99.90;;;;;;5006838;28;20046;-73
2022/03/28 12:16:53;;;;;;;11.85;9.10;;;10.80;99.90;;;;;;5007826;28;20049;-73
2022/03/28 12:19:21;;;;;;;12.85;9.70;;;10.80;99.90;;;;;;5007102;28;20147;-73
2022/03/28 12:21:48;;;;;;;12.45;9.50;;;10.90;99.90;;;;;;5007391;28;20497;-73
2022/03/28 12:24:14;;;;;;;13.20;9.90;;;11.00;99.90;;;;;;5006914;28;20056;-73
2022/03/28 12:26:45;;;;;;;13.15;9.80;;;11.00;99.90;;;;;;4998711;28;20049;-75
2022/03/28 12:29:14;;;;;;;11.85;9.88;;;11.10;99.90;;;;;;4993655;28;20042;-74
2022/03/28 12:31:47;;;;;;;11.15;9.13;;;11.20;99.90;;;;;;4995768;28;20052;-74
2022/03/28 12:34:19;;;;;;;12.35;9.63;;;11.20;99.90;;;;;;4996153;28;20488;-74
2022/03/28 12:36:45;;;;;;;12.23;9.95;;;11.30;99.90;;;;;;5005811;28;20034;-73
2022/03/28 12:39:12;;;;;;;12.82;9.68;;;11.30;99.90;;;;;;5004923;28;20508;-73
2022/03/28 12:41:58;;;;;;;20.13;10.40;;;11.40;99.90;;;;;;4994781;28;20050;-73
2022/03/28 12:44:24;;;;;;;12.68;9.90;;;11.40;99.90;;;;;;4995464;28;20100;-73
2022/03/28 12:46:50;;;;;;;14.52;10.60;;;11.40;99.90;;;;;;4994144;28;20046;-72
2022/03/28 12:49:18;;;;;;;11.75;10.18;;;11.50;99.90;;;;;;4997664;28;20444;-72
2022/03/28 12:51:45;;;;;;;13.50;10.02;;;11.60;99.90;;;;;;4994642;28;20041;-71